Time;durP1;ratioP1;P1;durP2;ratioP2;P2;SDS_P1;SDS_P2;PMS_P1;PMS_P2;Temp;Humidity;BMP_temperature;BMP_pressure;BME280_temperature;BME280_humidity;BME280_pressure;Samples;Min_cycle;Max_cycle;Signal;HPM_P1;HPM_P2
2022/06/17 00:01:28;;;;;;;8.40;3.03;;;;;;;22.77;37.36;92986.59;4804080;29;20055;-74
2022/06/17 00:03:54;;;;;;;6.75;3.00;;;;;;;22.76;37.44;92977.03;4787722;29;20502;-75
2022/06/17 00:06:22;;;;;;;6.15;2.80;;;;;;;22.77;37.38;92975.91;4804126;29;20058;-75
2022/06/17 00:08:49;;;;;;;6.50;2.72;;;;;;;22.82;36.90;92972.97;4803948;29;20038;-75
2022/06/17 00:11:24;;;;;;;12.43;2.90;;;;;;;22.89;36.97;92978.44;4803925;29;20047;-75
2022/06/17 00:13:50;;;;;;;5.60;3.08;;;;;;;22.87;37.16;92972.66;4787585;29;20483;-75
2022/06/17 00:16:18;;;;;;;8.77;2.90;;;;;;;22.81;37.21;92960.75;4803982;29;20039;-74
2022/06/17 00:18:44;;;;;;;7.07;3.10;;;;;;;22.77;37.57;92963.34;4804118;29;20030;-74
2022/06/17 00:21:25;;;;;;;6.03;2.90;;;;;;;22.84;37.29;92970.72;4787555;29;20053;-75
2022/06/17 00:23:51;;;;;;;6.75;2.83;;;;;;;22.90;36.79;92973.88;4787527;29;20042;-75
2022/06/17 00:26:17;;;;;;;5.25;2.70;;;;;;;22.83;36.73;92964.63;4803960;29;20080;-75
2022/06/17 00:28:44;;;;;;;10.43;2.95;;;;;;;22.86;37.08;92963.13;4787552;29;20130;-75
2022/06/17 00:31:10;;;;;;;5.97;2.80;;;;;;;22.86;37.21;92963.13;4787516;29;20524;-74
2022/06/17 00:33:36;;;;;;;7.38;2.92;;;;;;;22.84;36.99;92968.06;4787491;29;20031;-75
2022/06/17 00:36:04;;;;;;;5.45;2.70;;;;;;;22.80;37.37;92964.53;4787758;29;20057;-75
2022/06/17 00:38:32;;;;;;;8.55;2.60;;;;;;;22.70;37.46;92962.41;4772761;29;20039;-74
2022/06/17 00:41:11;;;;;;;6.20;2.65;;;;;;;22.60;37.76;92963.75;4803858;29;20030;-75
2022/06/17 00:43:39;;;;;;;5.63;2.97;;;;;;;22.53;37.86;92966.25;4789357;29;20084;-74
2022/06/17 00:46:43;;;;;;;7.35;2.97;;;;;;;22.47;38.18;92963.06;4791234;29;20545;-75
2022/06/17 00:49:30;;;;;;;5.65;2.70;;;;;;;22.36;38.75;92957.53;4807202;29;20122;-74
2022/06/17 00:52:05;;;;;;;5.00;2.85;;;;;;;22.29;38.67;92961.94;4807017;29;20058;-74
2022/06/17 00:54:41;;;;;;;6.93;2.70;;;;;;;22.26;38.79;92959.97;4807120;29;20062;-75
2022/06/17 00:57:29;;;;;;;9.45;2.80;;;;;;;22.21;38.79;92968.97;4807187;29;20035;-75
2022/06/17 01:00:07;;;;;;;6.57;2.72;;;;;;;22.19;38.64;92969.31;4807117;29;20063;-75
2022/06/17 01:02:37;;;;;;;6.00;2.65;;;;;;;22.15;39.11;92963.13;4790864;29;20114;-75
2022/06/17 01:05:04;;;;;;;6.20;2.53;;;;;;;22.14;39.02;92966.16;4790684;29;20125;-75
2022/06/17 01:07:36;;;;;;;6.20;3.17;;;;;;;22.07;39.31;92971.31;4790853;29;20035;-75
2022/06/17 01:10:09;;;;;;;4.50;2.67;;;;;;;22.06;39.19;92973.19;4790663;29;20092;-74
2022/06/17 01:12:56;;;;;;;4.93;2.80;;;;;;;22.04;38.64;92970.91;4775969;29;20050;-75
2022/06/17 01:15:25;;;;;;;7.05;3.05;;;;;;;22.05;38.70;92969.00;4790532;29;20528;-74
2022/06/17 01:17:55;;;;;;;;;;;;;;;22.06;38.73;92972.44;4791337;29;20030;-75
2022/06/17 01:20:23;;;;;;;7.82;2.72;;;;;;;22.01;38.67;92962.81;4790423;29;19917;-74
2022/06/17 01:22:51;;;;;;;6.55;2.60;;;;;;;22.04;39.02;92972.75;4790505;29;20039;-75
2022/06/17 01:25:22;;;;;;;7.35;3.05;;;;;;;22.11;38.70;92972.97;4806612;29;20043;-75
2022/06/17 01:27:52;;;;;;;4.72;2.70;;;;;;;22.09;38.32;92969.84;4790548;29;20053;-75
2022/06/17 01:30:25;;;;;;;6.20;2.75;;;;;;;22.08;38.61;92968.31;4790284;29;20482;-74
2022/06/17 01:32:59;;;;;;;7.78;2.58;;;;;;;22.06;38.70;92970.53;4806433;29;20379;-74
2022/06/17 01:35:30;;;;;;;7.43;2.65;;;;;;;22.04;38.86;92967.44;4790224;29;20509;-75
2022/06/17 01:37:57;;;;;;;6.13;2.72;;;;;;;22.01;38.75;92968.13;4790141;29;20069;-75
2022/06/17 01:40:28;;;;;;;6.65;2.92;;;;;;;22.07;38.37;92966.75;4806783;29;20037;-75
2022/06/17 01:42:55;;;;;;;6.35;3.00;;;;;;;22.06;38.36;92970.53;4790082;29;20562;-74
2022/06/17 01:45:21;;;;;;;6.22;2.80;;;;;;;22.04;38.44;92965.56;4790290;29;20126;-75
2022/06/17 01:47:47;;;;;;;5.10;2.42;;;;;;;22.14;37.98;92966.16;4806356;29;20119;-75
2022/06/17 01:50:26;;;;;;;10.20;3.10;;;;;;;22.13;37.96;92962.69;4790048;29;20054;-75
2022/06/17 01:52:58;;;;;;;4.15;2.50;;;;;;;22.13;37.94;92972.59;4789869;29;20518;-75
2022/06/17 01:55:31;;;;;;;4.80;2.70;;;;;;;22.07;38.32;92969.44;4789310;29;20046;-74
2022/06/17 01:58:23;;;;;;;5.20;2.78;;;;;;;22.02;38.43;92969.66;4789927;29;20046;-74
2022/06/17 02:00:48;;;;;;;6.53;2.67;;;;;;;21.95;38.76;92956.97;4789704;29;20513;-75
2022/06/17 02:03:24;;;;;;;5.53;2.50;;;;;;;21.91;38.71;92971.31;4789949;29;20093;-75
2022/06/17 02:06:08;;;;;;;6.00;3.05;;;;;;;21.90;38.52;92961.78;4789974;29;20050;-75
2022/06/17 02:08:35;;;;;;;5.32;2.63;;;;;;;21.88;38.39;92959.47;4775191;29;20049;-75
2022/06/17 02:11:05;;;;;;;6.28;2.70;;;;;;;21.86;38.80;92966.25;4789968;29;20054;-75
2022/06/17 02:13:32;;;;;;;5.95;2.65;;;;;;;21.83;38.45;92968.47;4789743;29;20043;-74
2022/06/17 02:16:27;;;;;;;6.60;2.70;;;;;;;21.82;38.46;92966.19;4772446;29;20127;-75
2022/06/17 02:19:00;;;;;;;5.28;2.72;;;;;;;21.85;38.24;92959.38;4789594;29;20054;-74
2022/06/17 02:21:49;;;;;;;6.55;2.72;;;;;;;21.82;38.31;92963.53;4790000;29;20466;-74
2022/06/17 02:24:18;;;;;;;4.75;2.50;;;;;;;21.78;38.55;92966.09;4805478;29;20051;-75
2022/06/17 02:26:44;;;;;;;10.77;2.25;;;;;;;21.78;38.43;92966.09;4789645;29;20038;-74
2022/06/17 02:29:12;;;;;;;6.65;2.50;;;;;;;21.80;38.25;92968.41;4789571;29;20091;-74
2022/06/17 02:31:40;;;;;;;11.68;2.70;;;;;;;21.77;38.39;92969.88;4789255;29;20387;-74
2022/06/17 02:34:10;;;;;;;6.15;2.53;;;;;;;21.77;38.58;92967.22;4805460;29;20465;-75
2022/06/17 02:37:12;;;;;;;5.30;2.65;;;;;;;21.77;37.99;92963.75;4789159;29;20035;-75
2022/06/17 02:39:42;;;;;;;5.20;2.60;;;;;;;21.73;38.42;92965.56;4802535;29;20104;-74
2022/06/17 02:42:20;;;;;;;4.82;2.40;;;;;;;21.75;38.05;92966.78;4789361;29;20031;-75
2022/06/17 02:44:52;;;;;;;7.15;2.60;;;;;;;21.71;38.31;92960.59;4789093;29;20099;-75
2022/06/17 02:47:17;;;;;;;7.47;2.80;;;;;;;21.68;38.32;92961.25;4789104;29;20039;-75
2022/06/17 02:49:45;;;;;;;6.85;2.35;;;;;;;21.64;38.25;92960.44;4789095;29;20038;-75
2022/06/17 02:52:16;;;;;;;6.20;2.40;;;;;;;21.60;38.54;92959.56;4789085;29;20562;-75
2022/06/17 02:54:48;;;;;;;5.63;2.60;;;;;;;21.59;38.47;92963.31;4788881;29;20043;-74
2022/06/17 02:57:20;;;;;;;;;;;;;;;21.59;38.49;92969.44;4789387;29;20125;-74
2022/06/17 02:59:52;;;;;;;3.78;2.40;;;;;;;21.55;38.45;92973.13;4788981;29;19923;-74
2022/06/17 03:02:35;;;;;;;5.38;2.70;;;;;;;21.51;38.79;92977.59;4788638;29;20039;-75
2022/06/17 03:05:01;;;;;;;4.50;2.50;;;;;;;21.46;38.88;92985.81;4789026;29;20074;-75
2022/06/17 03:07:30;;;;;;;7.10;2.63;;;;;;;21.41;39.05;92987.63;4788658;29;20129;-75
2022/06/17 03:10:38;;;;;;;6.85;2.70;;;;;;;21.42;38.82;92983.84;4790014;29;20062;-75
2022/06/17 03:13:31;;;;;;;7.93;2.60;;;;;;;21.37;39.05;92994.72;4781260;29;20055;-75
2022/06/17 03:16:02;;;;;;;4.20;2.42;;;;;;;21.34;38.95;92990.06;4781780;29;20046;-75
2022/06/17 03:18:29;;;;;;;6.07;2.63;;;;;;;21.33;38.94;92987.75;4788576;29;20039;-75
2022/06/17 03:20:56;;;;;;;4.80;2.47;;;;;;;21.31;38.96;92990.75;4803459;29;20034;-75
2022/06/17 03:23:33;;;;;;;6.90;2.67;;;;;;;21.32;39.16;92997.66;4788419;29;20544;-75
2022/06/17 03:26:03;;;;;;;5.50;2.53;;;;;;;21.30;39.06;92994.53;4803458;29;20107;-74
2022/06/17 03:28:40;;;;;;;4.32;2.50;;;;;;;21.32;38.93;93000.31;4804576;29;20043;-75
2022/06/17 03:31:09;;;;;;;4.68;2.50;;;;;;;21.30;39.17;93001.72;4788240;29;20038;-75
2022/06/17 03:33:41;;;;;;;4.88;2.42;;;;;;;21.25;39.58;93002.00;4804614;29;20618;-75
2022/06/17 03:36:16;;;;;;;5.18;2.40;;;;;;;21.24;39.65;92998.56;4788368;29;20042;-75
2022/06/17 03:38:49;;;;;;;6.95;2.70;;;;;;;21.16;40.36;92996.81;4788162;29;20047;-75
2022/06/17 03:41:22;;;;;;;4.72;2.47;;;;;;;21.10;40.22;93001.63;4788226;29;20413;-75
2022/06/17 03:44:02;;;;;;;4.20;2.30;;;;;;;21.08;40.07;93000.41;4788181;29;20047;-75
2022/06/17 03:46:36;;;;;;;4.68;2.40;;;;;;;21.08;39.72;93003.84;4788271;29;20046;-75
2022/06/17 03:49:12;;;;;;;6.85;2.63;;;;;;;21.05;40.24;92999.19;4788140;29;20035;-75
2022/06/17 03:51:41;;;;;;;7.50;2.50;;;;;;;21.03;40.68;93000.63;4788238;29;20464;-74
2022/06/17 03:54:12;;;;;;;5.07;2.70;;;;;;;20.98;40.40;92999.78;4788158;29;20042;-75
2022/06/17 03:56:41;;;;;;;5.78;2.80;;;;;;;20.93;40.69;92997.34;4804538;29;20042;-75
2022/06/17 03:59:15;;;;;;;6.55;2.40;;;;;;;20.89;40.96;92996.47;4787923;29;20246;-74
2022/06/17 04:01:47;;;;;;;6.97;2.60;;;;;;;20.84;41.70;92991.38;4787946;29;20537;-74
2022/06/17 04:04:23;;;;;;;7.57;2.67;;;;;;;20.76;42.65;92997.59;4787805;29;20105;-74
2022/06/17 04:06:54;;;;;;;6.78;2.72;;;;;;;20.71;42.60;93000.50;4788080;29;20035;-74
2022/06/17 04:09:29;;;;;;;7.35;2.70;;;;;;;20.70;41.68;93001.63;4787766;29;20039;-75
2022/06/17 04:12:00;;;;;;;6.07;2.75;;;;;;;20.68;41.62;93001.19;4787653;29;20414;-74
2022/06/17 04:14:51;;;;;;;5.65;2.50;;;;;;;20.67;42.11;93004.94;4787709;29;20046;-75
2022/06/17 04:17:34;;;;;;;6.55;2.70;;;;;;;20.66;42.37;93006.84;4788559;29;20058;-75
2022/06/17 04:20:22;;;;;;;6.18;2.60;;;;;;;20.65;42.40;93004.50;4793708;29;20042;-75
2022/06/17 04:22:51;;;;;;;4.50;2.50;;;;;;;20.66;42.22;92995.44;4793951;29;20509;-75
2022/06/17 04:25:40;;;;;;;6.90;2.47;;;;;;;20.65;41.93;93013.28;4808674;29;20106;-75
2022/06/17 04:28:11;;;;;;;5.18;2.90;;;;;;;20.65;45.15;93018.59;4809942;29;20047;-74
2022/06/17 04:30:46;;;;;;;10.15;3.83;;;;;;;20.63;46.20;93017.41;4794428;29;20201;-75
2022/06/17 04:33:16;;;;;;;6.20;3.03;;;;;;;20.61;47.39;93016.94;4793496;29;20110;-75
2022/06/17 04:35:42;;;;;;;7.25;3.05;;;;;;;20.54;48.46;93023.56;4793686;29;20123;-74
2022/06/17 04:38:09;;;;;;;6.38;3.05;;;;;;;20.47;49.16;93023.38;4793846;29;20507;-75
2022/06/17 04:41:00;;;;;;;6.30;2.70;;;;;;;20.37;48.17;93019.25;4793461;29;20082;-74
2022/06/17 04:44:04;;;;;;;4.97;2.53;;;;;;;20.36;47.22;93032.91;4795188;29;20050;-74
2022/06/17 04:46:32;;;;;;;6.20;2.40;;;;;;;20.28;48.01;93031.13;4793667;29;20039;-75
2022/06/17 04:48:59;;;;;;;6.10;2.58;;;;;;;20.28;47.78;93041.75;4778581;29;20049;-75
2022/06/17 04:51:31;;;;;;;5.07;2.65;;;;;;;20.32;47.74;93042.66;4793597;29;20053;-74
2022/06/17 04:53:57;;;;;;;5.07;2.60;;;;;;;20.32;47.31;93035.44;4793415;29;20046;-75
2022/06/17 04:56:47;;;;;;;6.07;2.55;;;;;;;20.31;48.08;93031.25;4793329;29;20055;-74
2022/06/17 04:59:37;;;;;;;5.97;2.55;;;;;;;20.31;48.52;93041.09;4793368;29;20053;-74
2022/06/17 05:02:13;;;;;;;5.45;2.70;;;;;;;20.34;49.18;93035.13;4793386;29;20041;-75
2022/06/17 05:04:51;;;;;;;5.32;2.90;;;;;;;20.41;49.43;93039.88;4793522;29;20043;-74
2022/06/17 05:07:17;;;;;;;6.22;2.92;;;;;;;20.48;49.70;93040.09;4793557;29;20046;-74
2022/06/17 05:09:48;;;;;;;4.95;2.80;;;;;;;20.57;49.78;93041.53;4793590;29;20031;-74
2022/06/17 05:12:36;;;;;;;8.63;3.05;;;;;;;20.63;49.86;93049.31;4793420;29;20532;-74
2022/06/17 05:15:15;;;;;;;5.35;2.70;;;;;;;20.74;49.73;93047.75;4793431;29;20039;-74
2022/06/17 05:17:42;;;;;;;5.25;2.53;;;;;;;20.82;49.61;93038.06;4793193;29;20545;-75
2022/06/17 05:20:12;;;;;;;6.38;2.47;;;;;;;20.92;49.24;93042.94;4793179;29;20127;-74
2022/06/17 05:22:44;;;;;;;4.95;2.58;;;;;;;21.02;48.82;93050.44;4793131;29;20054;-74
2022/06/17 05:25:17;;;;;;;6.55;2.90;;;;;;;21.18;47.32;93047.81;4793151;29;20041;-74
2022/06/17 05:27:43;;;;;;;6.05;2.67;;;;;;;21.26;48.29;93054.13;4793293;29;20038;-75
2022/06/17 05:30:09;;;;;;;5.88;2.90;;;;;;;21.38;48.28;93052.19;4790047;29;20038;-74
2022/06/17 05:32:42;;;;;;;7.03;3.25;;;;;;;21.42;48.53;93055.75;4790096;29;20104;-75
2022/06/17 05:35:08;;;;;;;5.88;2.55;;;;;;;21.44;49.31;93052.00;4806329;29;20069;-75
2022/06/17 05:37:34;;;;;;;6.28;2.72;;;;;;;21.53;49.01;93044.63;4790226;29;20047;-75
2022/06/17 05:40:03;;;;;;;9.55;2.90;;;;;;;21.64;48.93;93053.66;4790195;29;20039;-75
2022/06/17 05:42:30;;;;;;;6.22;2.90;;;;;;;21.80;49.39;93056.34;4790049;29;20494;-75
2022/06/17 05:44:56;;;;;;;4.72;2.90;;;;;;;22.09;48.81;93047.16;4789960;29;20510;-75
2022/06/17 05:47:42;;;;;;;6.53;2.90;;;;;;;22.31;47.87;93045.78;4806160;29;20548;-75
2022/06/17 05:50:30;;;;;;;5.75;2.83;;;;;;;22.95;45.91;93048.34;4793193;29;20050;-75
2022/06/17 05:53:12;;;;;;;6.85;2.72;;;;;;;23.29;45.17;93052.13;4789776;29;20054;-75
2022/06/17 05:55:54;;;;;;;8.57;2.80;;;;;;;23.06;48.09;93063.50;4789979;29;20050;-75
2022/06/17 05:58:20;;;;;;;5.28;2.90;;;;;;;23.24;47.88;93052.41;4806117;29;20097;-75
2022/06/17 06:00:47;;;;;;;7.43;3.20;;;;;;;23.70;47.23;93063.19;4796083;29;20059;-75
2022/06/17 06:03:21;;;;;;;7.53;2.95;;;;;;;24.37;46.55;93062.06;4805098;29;20043;-75
2022/06/17 06:05:48;;;;;;;4.88;2.80;;;;;;;24.93;43.74;93061.38;4804859;29;20038;-75
2022/06/17 06:08:18;;;;;;;5.38;2.42;;;;;;;24.97;42.11;93056.84;4805372;29;20057;-75
2022/06/17 06:10:45;;;;;;;5.70;2.60;;;;;;;25.04;41.76;93067.63;4804836;29;20043;-75
2022/06/17 06:13:17;;;;;;;6.75;3.08;;;;;;;25.28;42.00;93071.00;4804786;29;20050;-75
2022/06/17 06:15:44;;;;;;;;;;;;;;;25.76;41.61;93081.91;4805151;29;20035;-75
2022/06/17 06:18:21;;;;;;;5.45;2.70;;;;;;;26.41;40.73;93074.47;4804681;29;19913;-75
2022/06/17 06:20:46;;;;;;;7.47;2.97;;;;;;;26.77;39.85;93079.03;4804663;29;20494;-76
2022/06/17 06:23:12;;;;;;;7.63;3.05;;;;;;;26.90;39.54;93076.78;4804547;29;20043;-75
2022/06/17 06:25:38;;;;;;;8.68;2.95;;;;;;;27.16;39.69;93075.78;4804359;29;20051;-76
2022/06/17 06:28:15;;;;;;;10.43;3.70;;;;;;;27.36;41.92;93073.59;4804453;29;20516;-75
2022/06/17 06:30:41;;;;;;;7.75;3.30;;;;;;;27.61;39.51;93078.31;4804676;29;20076;-75
2022/06/17 06:33:09;;;;;;;5.72;3.05;;;;;;;27.35;39.67;93079.34;4804318;29;20055;-75
2022/06/17 06:35:37;;;;;;;6.63;3.10;;;;;;;26.85;39.43;93087.13;4804199;29;20505;-75
2022/06/17 06:38:05;;;;;;;7.70;3.28;;;;;;;26.75;40.22;93089.38;4804360;29;20110;-75
2022/06/17 06:40:32;;;;;;;7.35;3.17;;;;;;;26.72;41.38;93090.09;4803968;29;20395;-75
2022/06/17 06:42:58;;;;;;;6.80;2.80;;;;;;;26.88;39.33;93087.13;4819357;29;20038;-75
2022/06/17 06:45:53;;;;;;;8.60;3.35;;;;;;;26.78;40.60;93093.22;4787226;29;20104;-75
2022/06/17 06:48:23;;;;;;;5.97;2.80;;;;;;;26.75;39.39;93099.31;4804184;29;20115;-75
2022/06/17 06:50:49;;;;;;;6.28;3.00;;;;;;;26.90;39.71;93097.50;4805264;29;20150;-75
2022/06/17 06:53:15;;;;;;;5.22;3.00;;;;;;;26.84;38.29;93096.31;4804348;29;20281;-75
2022/06/17 06:55:41;;;;;;;7.43;3.30;;;;;;;26.80;39.98;93093.59;4803900;29;20047;-75
2022/06/17 06:58:11;;;;;;;9.02;3.72;;;;;;;26.87;39.22;93111.69;4789024;29;20051;-75
2022/06/17 07:00:45;;;;;;;6.30;3.42;;;;;;;26.38;41.00;93108.97;4803658;29;20088;-76
2022/06/17 07:03:13;;;;;;;11.38;3.70;;;;;;;25.99;42.73;93107.84;4803932;29;20039;-75
2022/06/17 07:05:43;;;;;;;9.13;3.22;;;;;;;25.38;42.01;93113.25;4803777;29;20050;-75
2022/06/17 07:08:11;;;;;;;8.77;3.20;;;;;;;24.75;41.36;93108.53;4805066;29;20100;-75
2022/06/17 07:10:37;;;;;;;8.98;3.67;;;;;;;24.77;41.77;93106.25;4803622;29;20043;-75
2022/06/17 07:13:05;;;;;;;6.13;3.20;;;;;;;24.86;40.67;93104.13;4803645;29;20027;-75
2022/06/17 07:15:31;;;;;;;7.88;3.20;;;;;;;24.89;41.96;93106.06;4805065;29;20562;-75
2022/06/17 07:18:00;;;;;;;6.57;3.38;;;;;;;24.97;43.20;93109.59;4805122;29;20050;-75
2022/06/17 07:20:31;;;;;;;10.38;3.67;;;;;;;25.01;41.38;93111.19;4804652;29;20058;-75
2022/06/17 07:22:57;;;;;;;6.03;3.15;;;;;;;25.20;41.85;93114.94;4804959;29;20035;-75
2022/06/17 07:25:22;;;;;;;7.90;3.53;;;;;;;25.20;42.57;93107.66;4803367;29;20100;-75
2022/06/17 07:27:48;;;;;;;40.28;6.85;;;;;;;25.34;42.52;93112.44;4788720;29;20038;-75
2022/06/17 07:30:19;;;;;;;7.53;3.10;;;;;;;25.41;43.11;93111.75;4803609;29;20051;-75
2022/06/17 07:32:45;;;;;;;6.80;3.22;;;;;;;25.08;43.95;93108.63;4804514;29;20067;-75
2022/06/17 07:35:11;;;;;;;7.30;3.35;;;;;;;25.10;44.40;93113.63;4804477;29;20535;-75
2022/06/17 07:40:21;;;;;;;9.30;3.72;;;;;;;25.20;45.18;93107.66;4804379;29;20074;-75
2022/06/17 07:42:46;;;;;;;6.97;3.58;;;;;;;24.96;46.38;93103.47;4803367;29;20051;-74
2022/06/17 07:45:16;;;;;;;7.82;3.58;;;;;;;25.09;46.24;93107.50;4804310;29;20438;-75
2022/06/17 07:47:42;;;;;;;6.05;3.40;;;;;;;24.89;47.10;93109.50;4804565;29;20067;-74
2022/06/17 07:50:12;;;;;;;6.10;3.60;;;;;;;24.88;45.96;93104.50;4803594;29;20043;-75
2022/06/17 07:52:38;;;;;;;78.28;10.32;;;;;;;24.82;45.65;93112.09;4802527;29;20042;-75
2022/06/17 07:55:05;;;;;;;10.40;3.80;;;;;;;24.62;48.58;93100.69;4804503;29;20045;-75
2022/06/17 07:57:30;;;;;;;7.05;3.17;;;;;;;24.28;47.84;93100.50;4803160;29;20050;-75
2022/06/17 07:59:56;;;;;;;14.70;3.95;;;;;;;24.41;48.46;93103.00;4803152;29;20054;-75
2022/06/17 08:02:21;;;;;;;8.63;3.85;;;;;;;24.63;48.03;93102.25;4804243;29;20398;-75
2022/06/17 08:04:47;;;;;;;7.90;3.60;;;;;;;24.72;46.80;93100.09;4773590;29;20046;-75
2022/06/17 08:07:13;;;;;;;8.40;3.35;;;;;;;25.08;47.24;93097.13;4804062;29;20047;-75
2022/06/17 08:09:39;;;;;;;17.95;4.43;;;;;;;25.57;46.41;93098.16;4804212;29;20520;-75
2022/06/17 08:12:08;;;;;;;7.05;3.70;;;;;;;25.72;46.80;93099.88;4787970;29;20026;-75
2022/06/17 08:14:43;;;;;;;11.00;3.95;;;;;;;25.51;48.89;93101.19;4787899;29;20050;-75
2022/06/17 08:17:11;;;;;;;6.65;3.50;;;;;;;25.47;46.67;93097.69;4804024;29;20043;-75
2022/06/17 08:19:36;;;;;;;7.30;3.83;;;;;;;25.21;48.19;93108.44;4788075;29;20058;-75
2022/06/17 08:22:02;;;;;;;39.25;6.15;;;;;;;25.43;49.72;93106.81;4804083;29;20054;-75
2022/06/17 08:24:28;;;;;;;7.65;3.72;;;;;;;25.76;49.34;93108.72;4804024;29;20122;-75
2022/06/17 08:26:54;;;;;;;9.05;3.70;;;;;;;25.86;49.17;93097.34;4787893;29;20031;-75
2022/06/17 08:29:20;;;;;;;24.23;5.00;;;;;;;25.74;49.60;93108.31;4803917;29;20050;-75
2022/06/17 08:31:46;;;;;;;14.32;4.00;;;;;;;25.77;49.03;93110.25;4804171;29;20126;-75
2022/06/17 08:34:11;;;;;;;6.45;3.70;;;;;;;25.65;49.08;93100.56;4787973;29;20425;-75
2022/06/17 08:36:37;;;;;;;9.80;4.47;;;;;;;25.60;49.78;93108.16;4804330;29;20059;-75
2022/06/17 08:39:07;;;;;;;10.90;4.35;;;;;;;25.68;50.11;93102.50;4787479;29;20047;-75
2022/06/17 08:41:39;;;;;;;8.63;4.10;;;;;;;25.49;52.01;93094.63;4788049;29;20410;-75
2022/06/17 08:44:10;;;;;;;8.60;4.22;;;;;;;25.70;52.16;93102.16;4787673;29;20405;-75
2022/06/17 08:46:43;;;;;;;8.75;4.72;;;;;;;25.53;51.91;93098.91;4803796;29;20039;-75
2022/06/17 08:49:09;;;;;;;11.43;4.47;;;;;;;25.52;52.45;93097.34;4804244;29;20058;-75
2022/06/17 08:51:55;;;;;;;9.15;4.20;;;;;;;25.49;53.47;93100.00;4787820;29;20039;-75
2022/06/17 08:54:30;;;;;;;10.63;4.60;;;;;;;25.32;54.31;93099.41;4787522;29;20046;-75
2022/06/17 08:57:07;;;;;;;11.00;4.65;;;;;;;25.18;52.97;93109.13;4804000;29;20061;-75
2022/06/17 08:59:54;;;;;;;8.85;4.70;;;;;;;25.12;52.50;93100.63;4787688;29;20069;-75
2022/06/17 09:02:41;;;;;;;9.07;5.18;;;;;;;25.45;51.64;93101.84;4787790;29;20038;-75
2022/06/17 09:05:22;;;;;;;11.25;4.75;;;;;;;25.61;51.26;93104.34;4806517;29;20546;-75
2022/06/17 09:08:04;;;;;;;10.18;4.65;;;;;;;25.58;51.92;93110.41;4807351;29;20362;-75
2022/06/17 09:10:41;;;;;;;;;;;;;;;25.70;51.83;93107.50;4808050;29;20035;-75
2022/06/17 09:13:41;;;;;;;14.23;4.57;;;;;;;25.76;50.53;93112.19;4790763;29;20008;-75
2022/06/17 09:16:22;;;;;;;11.13;4.63;;;;;;;26.02;51.17;93104.41;4790573;29;20035;-75
2022/06/17 09:18:55;;;;;;;9.13;4.97;;;;;;;25.99;52.22;93108.63;4807123;29;20074;-75
2022/06/17 09:21:26;;;;;;;8.25;4.35;;;;;;;26.11;50.63;93110.25;4790792;29;20051;-75
2022/06/17 09:23:53;;;;;;;10.35;4.35;;;;;;;26.01;50.46;93110.91;4806856;29;20113;-75
2022/06/17 09:26:30;;;;;;;9.90;4.18;;;;;;;25.94;50.66;93106.28;4806767;29;20042;-75
2022/06/17 09:29:09;;;;;;;9.18;4.05;;;;;;;25.91;49.32;93120.41;4806657;29;20039;-75
2022/06/17 09:31:42;;;;;;;6.90;3.95;;;;;;;26.02;48.76;93112.47;4790818;29;20039;-75
2022/06/17 09:34:19;;;;;;;7.10;3.90;;;;;;;26.11;47.42;93116.38;4806894;29;20359;-75
2022/06/17 09:36:52;;;;;;;7.07;4.22;;;;;;;26.03;48.18;93114.78;4806758;29;20494;-75
2022/06/17 09:39:29;;;;;;;7.38;3.80;;;;;;;26.20;46.95;93115.31;4806694;29;20490;-75
2022/06/17 09:42:04;;;;;;;10.90;4.28;;;;;;;26.10;46.60;93114.09;4806521;29;20046;-75
2022/06/17 09:44:50;;;;;;;8.68;4.43;;;;;;;26.21;47.84;93114.16;4806893;29;20043;-75
2022/06/17 09:47:33;;;;;;;11.18;4.50;;;;;;;26.34;47.81;93123.50;4790204;29;20065;-75
2022/06/17 09:50:17;;;;;;;7.70;4.03;;;;;;;26.29;46.30;93121.94;4806447;29;20133;-75
2022/06/17 09:53:21;;;;;;;9.45;4.10;;;;;;;26.13;46.58;93124.06;4806174;29;20425;-75
2022/06/17 09:55:53;;;;;;;9.50;3.88;;;;;;;26.24;44.67;93118.81;4790345;29;20125;-75
2022/06/17 09:58:18;;;;;;;7.03;4.22;;;;;;;26.41;43.29;93112.81;4806564;29;20053;-75
2022/06/17 10:00:53;;;;;;;5.57;3.50;;;;;;;26.68;44.30;93121.53;4790081;29;20054;-75
2022/06/17 10:03:29;;;;;;;9.90;3.80;;;;;;;26.77;44.42;93111.25;4790052;29;20057;-75
2022/06/17 10:06:52;;;;;;;7.25;3.70;;;;;;;27.02;44.26;93110.66;4806419;29;20042;-74
2022/06/17 10:09:53;;;;;;;9.63;3.50;;;;;;;27.00;42.36;93112.94;4717846;30;20048;-74
2022/06/17 10:12:30;;;;;;;9.82;4.45;;;;;;;26.76;43.77;93106.25;4717541;30;20119;-75
2022/06/17 10:15:12;;;;;;;9.77;4.32;;;;;;;26.88;44.38;93108.59;4784341;29;20551;-74
2022/06/17 10:21:18;;;;;;;7.18;3.80;;;;;;;26.92;44.07;93100.59;4767297;29;20236;-74
2022/06/17 10:23:52;;;;;;;7.93;3.55;;;;;;;27.02;44.21;93107.16;4805927;29;20490;-75
2022/06/17 10:26:53;;;;;;;8.13;3.80;;;;;;;26.89;42.91;93117.47;4805742;29;20039;-75
2022/06/17 10:29:41;;;;;;;10.63;3.65;;;;;;;27.00;43.16;93104.88;4789320;29;20070;-75
2022/06/17 10:32:06;;;;;;;5.88;3.50;;;;;;;27.09;44.29;93107.19;4789559;29;20103;-75
2022/06/17 10:34:42;;;;;;;8.45;3.90;;;;;;;27.26;44.02;93111.19;4805579;29;20066;-74
2022/06/17 10:37:08;;;;;;;7.05;3.90;;;;;;;27.32;42.64;93110.44;4805602;29;20039;-74
2022/06/17 10:39:36;;;;;;;6.22;3.75;;;;;;;27.06;42.52;93102.59;4805582;29;20402;-74
2022/06/17 10:42:03;;;;;;;7.05;3.97;;;;;;;27.42;42.80;93098.19;4805738;29;20050;-75
2022/06/17 10:44:30;;;;;;;10.55;4.05;;;;;;;27.62;42.33;93099.44;4805479;29;20050;-75
2022/06/17 10:47:14;;;;;;;7.30;4.20;;;;;;;27.50;42.22;93099.78;4805459;29;20148;-74
2022/06/17 10:49:44;;;;;;;6.80;3.70;;;;;;;27.59;43.12;93094.06;4805485;29;20038;-75
2022/06/17 10:52:20;;;;;;;7.10;3.90;;;;;;;27.72;43.14;93100.63;4805009;29;20042;-74
2022/06/17 10:54:49;;;;;;;6.80;3.55;;;;;;;27.67;42.37;93090.22;4805091;29;20446;-75
2022/06/17 10:57:32;;;;;;;9.90;3.95;;;;;;;27.91;41.89;93094.19;4805204;29;20482;-75
2022/06/17 10:59:58;;;;;;;5.68;3.60;;;;;;;27.82;41.49;93099.88;4788648;29;20043;-74
2022/06/17 11:02:30;;;;;;;7.45;3.65;;;;;;;27.74;43.09;93097.53;4804959;29;20129;-74
2022/06/17 11:05:03;;;;;;;;;;;;;;;27.95;41.44;93097.66;4806093;29;20034;-74
2022/06/17 11:07:48;;;;;;;7.40;3.92;;;;;;;27.95;42.42;93091.50;4804937;29;19916;-75
2022/06/17 11:10:13;;;;;;;7.53;3.90;;;;;;;28.08;41.83;93106.16;4788712;29;20413;-74
2022/06/17 11:12:52;;;;;;;6.78;4.05;;;;;;;28.28;42.87;93098.50;4788616;29;20042;-74
2022/06/17 11:15:23;;;;;;;7.05;3.70;;;;;;;28.32;41.91;93088.47;4804910;29;20054;-74
2022/06/17 11:17:52;;;;;;;6.60;3.72;;;;;;;28.01;42.93;93101.50;4804758;29;20039;-75
2022/06/17 11:20:30;;;;;;;6.93;3.88;;;;;;;27.99;42.30;93092.28;4804968;29;20184;-74
2022/06/17 11:23:14;;;;;;;5.93;3.60;;;;;;;28.24;41.63;93092.31;4804542;29;20055;-74
2022/06/17 11:25:41;;;;;;;6.53;3.80;;;;;;;28.07;41.60;93091.13;4804809;29;20042;-75
2022/06/17 11:28:11;;;;;;;6.35;3.40;;;;;;;27.90;41.60;93095.34;4787583;29;20574;-75
2022/06/17 11:30:57;;;;;;;8.00;4.10;;;;;;;27.80;42.21;93085.28;4804888;29;20038;-75
2022/06/17 11:33:29;;;;;;;11.88;4.18;;;;;;;27.87;43.53;93092.63;4804645;29;20463;-75
2022/06/17 11:36:24;;;;;;;7.53;3.63;;;;;;;27.93;42.71;93086.50;4804590;29;20081;-74
2022/06/17 11:38:50;;;;;;;10.10;3.97;;;;;;;28.03;42.72;93083.06;4788596;29;20062;-74
2022/06/17 11:41:32;;;;;;;5.65;3.47;;;;;;;28.39;43.86;93085.00;4804373;29;20043;-74
2022/06/17 11:44:11;;;;;;;4.85;3.50;;;;;;;28.80;43.50;93074.66;4788252;29;20034;-75
2022/06/17 11:46:48;;;;;;;107.97;12.13;;;;;;;28.80;42.24;93069.28;4788337;29;20039;-75
2022/06/17 11:49:16;;;;;;;6.50;3.53;;;;;;;29.12;42.91;93067.72;4773261;29;20453;-75
2022/06/17 11:52:01;;;;;;;9.35;3.78;;;;;;;29.36;40.96;93061.47;4804406;29;20035;-74
2022/06/17 11:54:33;;;;;;;8.27;3.58;;;;;;;29.43;39.69;93060.66;4804135;29;20043;-75
2022/06/17 11:57:20;;;;;;;9.43;4.15;;;;;;;29.36;39.57;93066.06;4787803;29;20180;-75
2022/06/17 11:59:49;;;;;;;6.55;3.95;;;;;;;29.35;42.22;93059.16;4804074;29;20038;-75
2022/06/17 12:02:16;;;;;;;7.82;4.00;;;;;;;29.24;42.50;93065.34;4788026;29;20126;-75
2022/06/17 12:04:56;;;;;;;8.30;3.83;;;;;;;29.29;42.47;93069.56;4787948;29;20051;-75
2022/06/17 12:07:38;;;;;;;8.70;3.50;;;;;;;29.18;40.89;93061.53;4804323;29;20043;-75
2022/06/17 12:10:10;;;;;;;7.32;3.35;;;;;;;29.45;38.40;93063.72;4803958;29;20047;-75